sensor_id;sensor_type;location;lat;lon;timestamp;P1;durP1;ratioP1;P2;durP2;ratioP2
57599;SDS011;43426;43.594;24.334;2023-04-24T00:00:55;13.48;;;8.88;;
57599;SDS011;43426;43.594;24.334;2023-04-24T00:03:26;9.10;;;8.10;;
57599;SDS011;43426;43.594;24.334;2023-04-24T00:05:52;7.65;;;7.05;;
57599;SDS011;43426;43.594;24.334;2023-04-24T00:10:44;9.50;;;7.57;;
57599;SDS011;43426;43.594;24.334;2023-04-24T00:13:10;9.20;;;8.40;;
57599;SDS011;43426;43.594;24.334;2023-04-24T00:15:35;8.93;;;7.97;;
57599;SDS011;43426;43.594;24.334;2023-04-24T00:18:01;8.77;;;7.97;;
57599;SDS011;43426;43.594;24.334;2023-04-24T00:20:26;8.98;;;7.80;;
57599;SDS011;43426;43.594;24.334;2023-04-24T00:22:54;9.85;;;8.90;;
57599;SDS011;43426;43.594;24.334;2023-04-24T00:25:20;9.43;;;8.52;;
57599;SDS011;43426;43.594;24.334;2023-04-24T00:27:45;10.70;;;9.65;;
57599;SDS011;43426;43.594;24.334;2023-04-24T00:30:11;11.30;;;8.90;;
57599;SDS011;43426;43.594;24.334;2023-04-24T00:32:36;9.23;;;8.43;;
57599;SDS011;43426;43.594;24.334;2023-04-24T00:35:02;9.65;;;8.68;;
57599;SDS011;43426;43.594;24.334;2023-04-24T00:37:27;8.75;;;8.05;;
57599;SDS011;43426;43.594;24.334;2023-04-24T00:39:53;10.73;;;9.45;;
57599;SDS011;43426;43.594;24.334;2023-04-24T00:42:19;11.77;;;9.68;;
57599;SDS011;43426;43.594;24.334;2023-04-24T00:44:45;11.18;;;9.98;;
57599;SDS011;43426;43.594;24.334;2023-04-24T00:47:10;11.40;;;10.40;;
57599;SDS011;43426;43.594;24.334;2023-04-24T00:49:39;10.82;;;9.43;;
57599;SDS011;43426;43.594;24.334;2023-04-24T00:52:04;10.25;;;9.35;;
57599;SDS011;43426;43.594;24.334;2023-04-24T00:54:32;11.02;;;9.82;;
57599;SDS011;43426;43.594;24.334;2023-04-24T00:56:58;16.13;;;9.15;;
57599;SDS011;43426;43.594;24.334;2023-04-24T00:59:23;13.20;;;9.23;;
57599;SDS011;43426;43.594;24.334;2023-04-24T01:01:49;9.68;;;8.77;;
57599;SDS011;43426;43.594;24.334;2023-04-24T01:04:14;10.52;;;9.52;;
57599;SDS011;43426;43.594;24.334;2023-04-24T01:06:42;10.63;;;9.60;;
57599;SDS011;43426;43.594;24.334;2023-04-24T01:09:10;11.23;;;9.05;;
57599;SDS011;43426;43.594;24.334;2023-04-24T01:11:37;10.30;;;9.20;;
57599;SDS011;43426;43.594;24.334;2023-04-24T01:14:02;10.52;;;9.55;;
57599;SDS011;43426;43.594;24.334;2023-04-24T01:16:28;11.15;;;9.82;;
57599;SDS011;43426;43.594;24.334;2023-04-24T01:18:53;9.85;;;8.95;;
57599;SDS011;43426;43.594;24.334;2023-04-24T01:21:19;9.60;;;8.77;;
57599;SDS011;43426;43.594;24.334;2023-04-24T01:23:46;12.93;;;9.20;;
57599;SDS011;43426;43.594;24.334;2023-04-24T01:26:12;10.82;;;9.70;;
57599;SDS011;43426;43.594;24.334;2023-04-24T01:28:41;12.25;;;9.60;;
57599;SDS011;43426;43.594;24.334;2023-04-24T01:31:06;10.75;;;9.70;;
57599;SDS011;43426;43.594;24.334;2023-04-24T01:33:32;10.95;;;9.85;;
57599;SDS011;43426;43.594;24.334;2023-04-24T01:35:58;11.45;;;10.10;;
57599;SDS011;43426;43.594;24.334;2023-04-24T01:38:23;12.32;;;9.90;;
57599;SDS011;43426;43.594;24.334;2023-04-24T01:40:49;10.52;;;9.43;;
57599;SDS011;43426;43.594;24.334;2023-04-24T01:45:40;12.63;;;9.65;;
57599;SDS011;43426;43.594;24.334;2023-04-24T01:48:06;16.85;;;9.55;;
57599;SDS011;43426;43.594;24.334;2023-04-24T01:50:31;11.82;;;9.75;;
57599;SDS011;43426;43.594;24.334;2023-04-24T01:52:57;10.75;;;9.65;;
57599;SDS011;43426;43.594;24.334;2023-04-24T01:55:22;13.75;;;10.45;;
57599;SDS011;43426;43.594;24.334;2023-04-24T01:57:48;11.75;;;10.68;;
57599;SDS011;43426;43.594;24.334;2023-04-24T02:00:14;12.38;;;11.07;;
57599;SDS011;43426;43.594;24.334;2023-04-24T02:02:39;13.85;;;9.77;;
57599;SDS011;43426;43.594;24.334;2023-04-24T02:05:08;12.32;;;11.07;;
57599;SDS011;43426;43.594;24.334;2023-04-24T02:07:34;12.02;;;10.93;;
57599;SDS011;43426;43.594;24.334;2023-04-24T02:10:00;13.82;;;10.73;;
57599;SDS011;43426;43.594;24.334;2023-04-24T02:12:25;12.50;;;10.20;;
57599;SDS011;43426;43.594;24.334;2023-04-24T02:14:50;11.47;;;10.43;;
57599;SDS011;43426;43.594;24.334;2023-04-24T02:17:16;14.27;;;11.63;;
57599;SDS011;43426;43.594;24.334;2023-04-24T02:22:07;14.25;;;11.43;;
57599;SDS011;43426;43.594;24.334;2023-04-24T02:24:33;12.20;;;10.15;;
57599;SDS011;43426;43.594;24.334;2023-04-24T02:26:58;11.30;;;10.05;;
57599;SDS011;43426;43.594;24.334;2023-04-24T02:31:50;12.25;;;10.13;;
57599;SDS011;43426;43.594;24.334;2023-04-24T02:34:15;12.18;;;10.95;;
57599;SDS011;43426;43.594;24.334;2023-04-24T02:36:41;14.85;;;10.75;;
57599;SDS011;43426;43.594;24.334;2023-04-24T02:39:06;12.02;;;10.05;;
57599;SDS011;43426;43.594;24.334;2023-04-24T02:41:32;12.85;;;11.63;;
57599;SDS011;43426;43.594;24.334;2023-04-24T02:43:58;14.02;;;12.18;;
57599;SDS011;43426;43.594;24.334;2023-04-24T02:46:23;15.25;;;11.75;;
57599;SDS011;43426;43.594;24.334;2023-04-24T02:48:49;15.82;;;12.52;;
57599;SDS011;43426;43.594;24.334;2023-04-24T02:51:14;12.85;;;11.57;;
57599;SDS011;43426;43.594;24.334;2023-04-24T02:53:40;13.65;;;11.38;;
57599;SDS011;43426;43.594;24.334;2023-04-24T02:56:05;13.45;;;11.30;;
57599;SDS011;43426;43.594;24.334;2023-04-24T02:58:31;16.40;;;11.68;;
57599;SDS011;43426;43.594;24.334;2023-04-24T03:00:56;12.70;;;11.30;;
57599;SDS011;43426;43.594;24.334;2023-04-24T03:03:22;13.23;;;11.50;;
57599;SDS011;43426;43.594;24.334;2023-04-24T03:05:48;13.05;;;11.73;;
57599;SDS011;43426;43.594;24.334;2023-04-24T03:08:14;18.48;;;12.73;;
57599;SDS011;43426;43.594;24.334;2023-04-24T03:10:39;17.33;;;12.65;;
57599;SDS011;43426;43.594;24.334;2023-04-24T03:13:05;13.90;;;11.77;;
57599;SDS011;43426;43.594;24.334;2023-04-24T03:15:30;15.15;;;12.25;;
57599;SDS011;43426;43.594;24.334;2023-04-24T03:17:56;15.38;;;11.95;;
57599;SDS011;43426;43.594;24.334;2023-04-24T03:20:22;12.75;;;11.45;;
57599;SDS011;43426;43.594;24.334;2023-04-24T03:22:47;14.00;;;11.55;;
57599;SDS011;43426;43.594;24.334;2023-04-24T03:25:13;14.05;;;12.05;;
57599;SDS011;43426;43.594;24.334;2023-04-24T03:27:38;12.60;;;11.30;;
57599;SDS011;43426;43.594;24.334;2023-04-24T03:30:05;15.77;;;11.73;;
57599;SDS011;43426;43.594;24.334;2023-04-24T03:32:33;13.90;;;12.27;;
57599;SDS011;43426;43.594;24.334;2023-04-24T03:34:59;15.77;;;12.68;;
57599;SDS011;43426;43.594;24.334;2023-04-24T03:37:27;14.25;;;12.77;;
57599;SDS011;43426;43.594;24.334;2023-04-24T03:39:52;16.08;;;12.60;;
57599;SDS011;43426;43.594;24.334;2023-04-24T03:42:18;16.17;;;12.50;;
57599;SDS011;43426;43.594;24.334;2023-04-24T03:44:43;17.25;;;12.25;;
57599;SDS011;43426;43.594;24.334;2023-04-24T03:47:08;15.97;;;12.17;;
57599;SDS011;43426;43.594;24.334;2023-04-24T03:49:34;15.52;;;12.43;;
57599;SDS011;43426;43.594;24.334;2023-04-24T03:51:59;14.98;;;12.80;;
57599;SDS011;43426;43.594;24.334;2023-04-24T03:54:25;19.25;;;12.93;;
57599;SDS011;43426;43.594;24.334;2023-04-24T03:56:50;15.32;;;12.80;;
57599;SDS011;43426;43.594;24.334;2023-04-24T03:59:16;18.83;;;11.75;;
57599;SDS011;43426;43.594;24.334;2023-04-24T04:01:41;14.07;;;11.75;;
57599;SDS011;43426;43.594;24.334;2023-04-24T04:04:07;11.60;;;10.50;;
57599;SDS011;43426;43.594;24.334;2023-04-24T04:06:33;12.13;;;10.98;;
57599;SDS011;43426;43.594;24.334;2023-04-24T04:08:58;12.63;;;11.23;;
57599;SDS011;43426;43.594;24.334;2023-04-24T04:11:24;12.45;;;11.27;;
57599;SDS011;43426;43.594;24.334;2023-04-24T04:13:50;11.52;;;10.32;;
57599;SDS011;43426;43.594;24.334;2023-04-24T04:16:15;10.93;;;9.75;;
57599;SDS011;43426;43.594;24.334;2023-04-24T04:18:44;9.57;;;8.52;;
57599;SDS011;43426;43.594;24.334;2023-04-24T04:21:10;10.48;;;9.18;;
57599;SDS011;43426;43.594;24.334;2023-04-24T04:23:35;12.82;;;9.88;;
57599;SDS011;43426;43.594;24.334;2023-04-24T04:26:01;11.55;;;8.77;;
57599;SDS011;43426;43.594;24.334;2023-04-24T04:28:29;10.15;;;9.15;;
57599;SDS011;43426;43.594;24.334;2023-04-24T04:30:56;9.45;;;8.63;;
57599;SDS011;43426;43.594;24.334;2023-04-24T04:33:22;9.90;;;8.32;;
57599;SDS011;43426;43.594;24.334;2023-04-24T04:35:48;9.75;;;8.85;;
57599;SDS011;43426;43.594;24.334;2023-04-24T04:40:40;10.40;;;9.43;;
57599;SDS011;43426;43.594;24.334;2023-04-24T04:43:05;13.68;;;9.85;;
57599;SDS011;43426;43.594;24.334;2023-04-24T04:45:31;18.23;;;10.23;;
57599;SDS011;43426;43.594;24.334;2023-04-24T04:47:57;11.90;;;10.75;;
57599;SDS011;43426;43.594;24.334;2023-04-24T04:50:25;15.30;;;10.07;;
57599;SDS011;43426;43.594;24.334;2023-04-24T04:52:53;11.27;;;10.15;;
57599;SDS011;43426;43.594;24.334;2023-04-24T04:55:19;11.73;;;10.30;;
57599;SDS011;43426;43.594;24.334;2023-04-24T04:57:45;11.15;;;10.05;;
57599;SDS011;43426;43.594;24.334;2023-04-24T05:00:11;10.25;;;9.38;;
57599;SDS011;43426;43.594;24.334;2023-04-24T05:02:37;12.32;;;9.00;;
57599;SDS011;43426;43.594;24.334;2023-04-24T05:05:06;9.23;;;8.43;;
57599;SDS011;43426;43.594;24.334;2023-04-24T05:07:32;9.23;;;8.43;;
57599;SDS011;43426;43.594;24.334;2023-04-24T05:09:57;9.85;;;8.52;;
57599;SDS011;43426;43.594;24.334;2023-04-24T05:12:23;9.73;;;8.68;;
57599;SDS011;43426;43.594;24.334;2023-04-24T05:14:48;8.75;;;7.85;;
57599;SDS011;43426;43.594;24.334;2023-04-24T05:17:14;8.35;;;7.45;;
57599;SDS011;43426;43.594;24.334;2023-04-24T05:22:05;10.43;;;6.80;;
57599;SDS011;43426;43.594;24.334;2023-04-24T05:24:32;7.28;;;6.57;;
57599;SDS011;43426;43.594;24.334;2023-04-24T05:26:58;7.25;;;6.65;;
57599;SDS011;43426;43.594;24.334;2023-04-24T05:31:51;7.28;;;6.68;;
57599;SDS011;43426;43.594;24.334;2023-04-24T05:36:41;7.70;;;7.00;;
57599;SDS011;43426;43.594;24.334;2023-04-24T05:41:33;10.38;;;6.43;;
57599;SDS011;43426;43.594;24.334;2023-04-24T05:46:24;6.22;;;5.65;;
57599;SDS011;43426;43.594;24.334;2023-04-24T05:51:15;8.15;;;6.47;;
57599;SDS011;43426;43.594;24.334;2023-04-24T05:53:40;8.43;;;6.93;;
57599;SDS011;43426;43.594;24.334;2023-04-24T05:56:06;6.18;;;5.78;;
57599;SDS011;43426;43.594;24.334;2023-04-24T06:00:56;7.22;;;6.53;;
57599;SDS011;43426;43.594;24.334;2023-04-24T06:03:23;7.10;;;6.50;;
57599;SDS011;43426;43.594;24.334;2023-04-24T06:08:15;9.02;;;6.70;;
57599;SDS011;43426;43.594;24.334;2023-04-24T06:10:43;8.77;;;7.95;;
57599;SDS011;43426;43.594;24.334;2023-04-24T06:15:34;7.63;;;7.00;;
57599;SDS011;43426;43.594;24.334;2023-04-24T06:20:24;7.72;;;7.03;;
57599;SDS011;43426;43.594;24.334;2023-04-24T06:25:15;7.13;;;6.53;;
57599;SDS011;43426;43.594;24.334;2023-04-24T06:30:06;6.30;;;5.85;;
57599;SDS011;43426;43.594;24.334;2023-04-24T06:32:35;6.75;;;6.15;;
57599;SDS011;43426;43.594;24.334;2023-04-24T06:35:00;6.78;;;6.20;;
57599;SDS011;43426;43.594;24.334;2023-04-24T06:37:26;7.10;;;6.47;;
57599;SDS011;43426;43.594;24.334;2023-04-24T06:39:51;7.63;;;6.93;;
57599;SDS011;43426;43.594;24.334;2023-04-24T06:44:42;6.57;;;6.07;;
57599;SDS011;43426;43.594;24.334;2023-04-24T06:47:08;7.63;;;6.88;;
57599;SDS011;43426;43.594;24.334;2023-04-24T06:52:02;7.07;;;6.47;;
57599;SDS011;43426;43.594;24.334;2023-04-24T06:56:54;6.78;;;6.28;;
57599;SDS011;43426;43.594;24.334;2023-04-24T07:01:45;6.50;;;5.80;;
57599;SDS011;43426;43.594;24.334;2023-04-24T07:06:37;7.27;;;6.77;;
57599;SDS011;43426;43.594;24.334;2023-04-24T07:09:04;8.00;;;7.07;;
57599;SDS011;43426;43.594;24.334;2023-04-24T07:13:55;7.93;;;7.22;;
57599;SDS011;43426;43.594;24.334;2023-04-24T07:18:46;9.35;;;7.40;;
57599;SDS011;43426;43.594;24.334;2023-04-24T07:23:36;8.25;;;7.55;;
57599;SDS011;43426;43.594;24.334;2023-04-24T07:28:27;9.15;;;7.63;;
57599;SDS011;43426;43.594;24.334;2023-04-24T07:30:56;7.75;;;7.15;;
57599;SDS011;43426;43.594;24.334;2023-04-24T07:35:51;8.15;;;7.50;;
57599;SDS011;43426;43.594;24.334;2023-04-24T07:40:45;9.88;;;7.60;;
57599;SDS011;43426;43.594;24.334;2023-04-24T07:45:36;8.63;;;7.82;;
57599;SDS011;43426;43.594;24.334;2023-04-24T07:50:28;8.52;;;7.65;;
57599;SDS011;43426;43.594;24.334;2023-04-24T07:55:18;8.80;;;7.72;;
57599;SDS011;43426;43.594;24.334;2023-04-24T08:00:09;9.60;;;8.23;;
57599;SDS011;43426;43.594;24.334;2023-04-24T08:02:35;9.00;;;8.07;;
57599;SDS011;43426;43.594;24.334;2023-04-24T08:05:01;9.85;;;8.10;;
57599;SDS011;43426;43.594;24.334;2023-04-24T08:07:27;9.65;;;8.85;;
57599;SDS011;43426;43.594;24.334;2023-04-24T08:12:18;10.18;;;9.20;;
57599;SDS011;43426;43.594;24.334;2023-04-24T08:17:09;9.80;;;8.70;;
57599;SDS011;43426;43.594;24.334;2023-04-24T08:19:35;9.95;;;9.02;;
57599;SDS011;43426;43.594;24.334;2023-04-24T08:22:00;10.70;;;9.75;;
57599;SDS011;43426;43.594;24.334;2023-04-24T08:26:51;10.35;;;9.48;;
57599;SDS011;43426;43.594;24.334;2023-04-24T08:29:19;10.20;;;9.15;;
57599;SDS011;43426;43.594;24.334;2023-04-24T08:34:10;9.77;;;8.95;;
57599;SDS011;43426;43.594;24.334;2023-04-24T08:39:01;10.23;;;9.15;;
57599;SDS011;43426;43.594;24.334;2023-04-24T08:43:52;10.02;;;9.10;;
57599;SDS011;43426;43.594;24.334;2023-04-24T08:48:43;10.98;;;9.20;;
57599;SDS011;43426;43.594;24.334;2023-04-24T08:51:09;11.20;;;9.00;;
57599;SDS011;43426;43.594;24.334;2023-04-24T08:56:01;9.75;;;8.95;;
57599;SDS011;43426;43.594;24.334;2023-04-24T09:00:56;9.15;;;8.35;;
57599;SDS011;43426;43.594;24.334;2023-04-24T09:03:23;9.13;;;8.32;;
57599;SDS011;43426;43.594;24.334;2023-04-24T09:08:16;9.20;;;7.05;;
57599;SDS011;43426;43.594;24.334;2023-04-24T09:10:42;7.70;;;7.05;;
57599;SDS011;43426;43.594;24.334;2023-04-24T09:13:11;8.82;;;7.07;;
57599;SDS011;43426;43.594;24.334;2023-04-24T09:18:05;7.18;;;6.57;;
57599;SDS011;43426;43.594;24.334;2023-04-24T09:20:31;7.60;;;6.55;;
57599;SDS011;43426;43.594;24.334;2023-04-24T09:22:57;7.50;;;6.95;;
57599;SDS011;43426;43.594;24.334;2023-04-24T09:25:32;7.30;;;6.70;;
57599;SDS011;43426;43.594;24.334;2023-04-24T09:28:02;5.95;;;5.47;;
57599;SDS011;43426;43.594;24.334;2023-04-24T09:30:29;7.00;;;6.40;;
57599;SDS011;43426;43.594;24.334;2023-04-24T09:33:10;6.75;;;6.25;;
57599;SDS011;43426;43.594;24.334;2023-04-24T09:35:36;7.03;;;6.43;;
57599;SDS011;43426;43.594;24.334;2023-04-24T09:38:05;6.80;;;6.30;;
57599;SDS011;43426;43.594;24.334;2023-04-24T09:40:31;7.40;;;6.65;;
57599;SDS011;43426;43.594;24.334;2023-04-24T09:42:59;8.20;;;7.50;;
57599;SDS011;43426;43.594;24.334;2023-04-24T09:45:27;8.18;;;7.47;;
57599;SDS011;43426;43.594;24.334;2023-04-24T09:47:59;7.95;;;7.28;;
57599;SDS011;43426;43.594;24.334;2023-04-24T09:50:25;7.75;;;7.05;;
57599;SDS011;43426;43.594;24.334;2023-04-24T09:52:57;7.72;;;7.13;;
57599;SDS011;43426;43.594;24.334;2023-04-24T09:55:24;7.90;;;7.18;;
57599;SDS011;43426;43.594;24.334;2023-04-24T09:58:00;6.40;;;5.90;;
57599;SDS011;43426;43.594;24.334;2023-04-24T10:00:27;8.20;;;7.50;;
57599;SDS011;43426;43.594;24.334;2023-04-24T10:05:27;7.55;;;6.85;;
57599;SDS011;43426;43.594;24.334;2023-04-24T10:08:04;6.95;;;6.45;;
57599;SDS011;43426;43.594;24.334;2023-04-24T10:10:33;8.90;;;7.03;;
57599;SDS011;43426;43.594;24.334;2023-04-24T10:13:03;8.20;;;7.50;;
57599;SDS011;43426;43.594;24.334;2023-04-24T10:15:29;6.63;;;6.18;;
57599;SDS011;43426;43.594;24.334;2023-04-24T10:17:55;7.03;;;6.32;;
57599;SDS011;43426;43.594;24.334;2023-04-24T10:20:24;6.68;;;6.07;;
57599;SDS011;43426;43.594;24.334;2023-04-24T10:22:51;6.30;;;5.80;;
57599;SDS011;43426;43.594;24.334;2023-04-24T10:25:19;6.20;;;5.50;;
57599;SDS011;43426;43.594;24.334;2023-04-24T10:27:47;6.32;;;5.57;;
57599;SDS011;43426;43.594;24.334;2023-04-24T10:30:16;6.05;;;5.55;;
57599;SDS011;43426;43.594;24.334;2023-04-24T10:32:43;6.50;;;5.90;;
57599;SDS011;43426;43.594;24.334;2023-04-24T10:35:10;6.15;;;5.65;;
57599;SDS011;43426;43.594;24.334;2023-04-24T10:37:43;5.78;;;5.25;;
57599;SDS011;43426;43.594;24.334;2023-04-24T10:40:18;5.05;;;4.53;;
57599;SDS011;43426;43.594;24.334;2023-04-24T10:42:49;5.93;;;4.90;;
57599;SDS011;43426;43.594;24.334;2023-04-24T10:45:21;5.65;;;5.15;;
57599;SDS011;43426;43.594;24.334;2023-04-24T10:47:52;6.18;;;5.65;;
57599;SDS011;43426;43.594;24.334;2023-04-24T10:50:18;4.75;;;4.45;;
57599;SDS011;43426;43.594;24.334;2023-04-24T10:52:47;5.40;;;5.00;;
57599;SDS011;43426;43.594;24.334;2023-04-24T10:55:16;5.85;;;5.35;;
57599;SDS011;43426;43.594;24.334;2023-04-24T10:58:05;4.60;;;4.30;;
57599;SDS011;43426;43.594;24.334;2023-04-24T11:00:30;6.28;;;4.95;;
57599;SDS011;43426;43.594;24.334;2023-04-24T11:02:56;6.47;;;4.70;;
57599;SDS011;43426;43.594;24.334;2023-04-24T11:05:22;4.88;;;4.57;;
57599;SDS011;43426;43.594;24.334;2023-04-24T11:11:14;4.10;;;3.80;;
57599;SDS011;43426;43.594;24.334;2023-04-24T11:16:32;3.95;;;3.75;;
57599;SDS011;43426;43.594;24.334;2023-04-24T11:21:31;4.60;;;4.20;;
57599;SDS011;43426;43.594;24.334;2023-04-24T11:24:21;4.43;;;4.05;;
57599;SDS011;43426;43.594;24.334;2023-04-24T11:32:57;4.90;;;4.50;;
57599;SDS011;43426;43.594;24.334;2023-04-24T11:37:39;4.40;;;4.10;;
57599;SDS011;43426;43.594;24.334;2023-04-24T11:40:11;4.15;;;3.85;;
57599;SDS011;43426;43.594;24.334;2023-04-24T11:42:39;3.67;;;3.38;;
57599;SDS011;43426;43.594;24.334;2023-04-24T11:45:10;3.30;;;3.10;;
57599;SDS011;43426;43.594;24.334;2023-04-24T11:47:38;4.18;;;3.72;;
57599;SDS011;43426;43.594;24.334;2023-04-24T11:50:04;4.13;;;3.83;;
57599;SDS011;43426;43.594;24.334;2023-04-24T11:52:33;4.47;;;3.35;;
57599;SDS011;43426;43.594;24.334;2023-04-24T11:55:01;3.33;;;3.13;;
57599;SDS011;43426;43.594;24.334;2023-04-24T11:57:27;3.83;;;3.42;;
57599;SDS011;43426;43.594;24.334;2023-04-24T11:59:58;3.55;;;3.28;;
57599;SDS011;43426;43.594;24.334;2023-04-24T12:02:24;3.40;;;3.10;;
57599;SDS011;43426;43.594;24.334;2023-04-24T12:04:53;3.80;;;3.25;;
57599;SDS011;43426;43.594;24.334;2023-04-24T12:07:19;4.43;;;4.03;;
57599;SDS011;43426;43.594;24.334;2023-04-24T12:09:45;3.08;;;2.88;;
57599;SDS011;43426;43.594;24.334;2023-04-24T12:12:13;2.83;;;2.60;;
57599;SDS011;43426;43.594;24.334;2023-04-24T12:14:51;5.38;;;2.85;;
57599;SDS011;43426;43.594;24.334;2023-04-24T12:17:23;2.78;;;2.58;;
57599;SDS011;43426;43.594;24.334;2023-04-24T12:20:06;4.07;;;3.00;;
57599;SDS011;43426;43.594;24.334;2023-04-24T12:25:11;3.67;;;3.42;;
57599;SDS011;43426;43.594;24.334;2023-04-24T12:27:37;3.72;;;3.42;;
57599;SDS011;43426;43.594;24.334;2023-04-24T12:30:04;3.60;;;3.30;;
57599;SDS011;43426;43.594;24.334;2023-04-24T12:32:30;4.40;;;3.72;;
57599;SDS011;43426;43.594;24.334;2023-04-24T12:34:56;3.75;;;3.45;;
57599;SDS011;43426;43.594;24.334;2023-04-24T12:37:23;4.03;;;3.75;;
57599;SDS011;43426;43.594;24.334;2023-04-24T12:40:04;3.05;;;2.78;;
57599;SDS011;43426;43.594;24.334;2023-04-24T12:42:34;4.15;;;3.50;;
57599;SDS011;43426;43.594;24.334;2023-04-24T12:45:02;3.42;;;3.13;;
57599;SDS011;43426;43.594;24.334;2023-04-24T12:47:29;6.18;;;3.72;;
57599;SDS011;43426;43.594;24.334;2023-04-24T12:49:55;4.20;;;3.90;;
57599;SDS011;43426;43.594;24.334;2023-04-24T12:52:24;3.83;;;3.17;;
57599;SDS011;43426;43.594;24.334;2023-04-24T12:54:52;3.55;;;3.25;;
57599;SDS011;43426;43.594;24.334;2023-04-24T12:57:20;3.20;;;3.00;;
57599;SDS011;43426;43.594;24.334;2023-04-24T12:59:46;4.57;;;3.78;;
57599;SDS011;43426;43.594;24.334;2023-04-24T13:02:11;3.88;;;3.58;;
57599;SDS011;43426;43.594;24.334;2023-04-24T13:04:37;3.70;;;3.40;;
57599;SDS011;43426;43.594;24.334;2023-04-24T13:07:03;3.60;;;3.30;;
57599;SDS011;43426;43.594;24.334;2023-04-24T13:09:28;4.03;;;3.45;;
57599;SDS011;43426;43.594;24.334;2023-04-24T13:11:55;3.72;;;3.45;;
57599;SDS011;43426;43.594;24.334;2023-04-24T13:14:21;3.15;;;2.95;;
57599;SDS011;43426;43.594;24.334;2023-04-24T13:16:47;3.00;;;2.80;;
57599;SDS011;43426;43.594;24.334;2023-04-24T13:19:13;2.88;;;2.67;;
57599;SDS011;43426;43.594;24.334;2023-04-24T13:21:38;3.55;;;2.67;;
57599;SDS011;43426;43.594;24.334;2023-04-24T13:24:04;3.08;;;2.88;;
57599;SDS011;43426;43.594;24.334;2023-04-24T13:26:30;4.05;;;2.92;;
57599;SDS011;43426;43.594;24.334;2023-04-24T13:28:56;2.90;;;2.70;;
57599;SDS011;43426;43.594;24.334;2023-04-24T13:31:21;3.25;;;2.65;;
57599;SDS011;43426;43.594;24.334;2023-04-24T13:33:47;3.08;;;2.88;;
57599;SDS011;43426;43.594;24.334;2023-04-24T13:36:13;2.80;;;2.33;;
57599;SDS011;43426;43.594;24.334;2023-04-24T13:38:38;3.05;;;2.75;;
57599;SDS011;43426;43.594;24.334;2023-04-24T13:41:04;2.97;;;2.78;;
57599;SDS011;43426;43.594;24.334;2023-04-24T13:43:29;2.67;;;2.53;;
57599;SDS011;43426;43.594;24.334;2023-04-24T13:45:55;2.20;;;2.08;;
57599;SDS011;43426;43.594;24.334;2023-04-24T13:48:20;2.70;;;2.50;;
57599;SDS011;43426;43.594;24.334;2023-04-24T13:50:46;2.63;;;2.33;;
57599;SDS011;43426;43.594;24.334;2023-04-24T13:53:13;3.00;;;2.80;;
57599;SDS011;43426;43.594;24.334;2023-04-24T13:55:38;3.15;;;2.35;;
57599;SDS011;43426;43.594;24.334;2023-04-24T13:58:04;2.55;;;2.35;;
57599;SDS011;43426;43.594;24.334;2023-04-24T14:00:30;2.83;;;2.63;;
57599;SDS011;43426;43.594;24.334;2023-04-24T14:02:56;3.17;;;2.83;;
57599;SDS011;43426;43.594;24.334;2023-04-24T14:05:21;2.50;;;2.30;;
57599;SDS011;43426;43.594;24.334;2023-04-24T14:07:47;2.20;;;2.10;;
57599;SDS011;43426;43.594;24.334;2023-04-24T14:10:12;2.88;;;2.67;;
57599;SDS011;43426;43.594;24.334;2023-04-24T14:12:38;3.15;;;2.92;;
57599;SDS011;43426;43.594;24.334;2023-04-24T14:15:04;3.15;;;2.88;;
57599;SDS011;43426;43.594;24.334;2023-04-24T14:17:30;3.22;;;2.90;;
57599;SDS011;43426;43.594;24.334;2023-04-24T14:19:56;4.15;;;2.85;;
57599;SDS011;43426;43.594;24.334;2023-04-24T14:22:22;3.42;;;3.15;;
57599;SDS011;43426;43.594;24.334;2023-04-24T14:24:47;3.17;;;2.90;;
57599;SDS011;43426;43.594;24.334;2023-04-24T14:27:13;2.80;;;2.63;;
57599;SDS011;43426;43.594;24.334;2023-04-24T14:29:38;4.45;;;3.42;;
57599;SDS011;43426;43.594;24.334;2023-04-24T14:32:04;3.42;;;3.13;;
57599;SDS011;43426;43.594;24.334;2023-04-24T14:34:29;3.35;;;3.08;;
57599;SDS011;43426;43.594;24.334;2023-04-24T14:36:57;3.65;;;2.95;;
57599;SDS011;43426;43.594;24.334;2023-04-24T14:39:23;3.40;;;3.20;;
57599;SDS011;43426;43.594;24.334;2023-04-24T14:41:49;3.55;;;3.25;;
57599;SDS011;43426;43.594;24.334;2023-04-24T14:44:14;4.32;;;3.20;;
57599;SDS011;43426;43.594;24.334;2023-04-24T14:46:40;3.35;;;3.10;;
57599;SDS011;43426;43.594;24.334;2023-04-24T14:49:06;3.33;;;3.03;;
57599;SDS011;43426;43.594;24.334;2023-04-24T14:51:34;3.60;;;3.30;;
57599;SDS011;43426;43.594;24.334;2023-04-24T14:54:00;4.88;;;2.75;;
57599;SDS011;43426;43.594;24.334;2023-04-24T14:56:26;3.58;;;3.25;;
57599;SDS011;43426;43.594;24.334;2023-04-24T14:58:54;5.22;;;3.40;;
57599;SDS011;43426;43.594;24.334;2023-04-24T15:01:20;2.75;;;2.58;;
57599;SDS011;43426;43.594;24.334;2023-04-24T15:03:46;3.58;;;3.28;;
57599;SDS011;43426;43.594;24.334;2023-04-24T15:06:11;3.83;;;3.53;;
57599;SDS011;43426;43.594;24.334;2023-04-24T15:08:37;3.00;;;2.80;;
57599;SDS011;43426;43.594;24.334;2023-04-24T15:11:02;3.45;;;3.00;;
57599;SDS011;43426;43.594;24.334;2023-04-24T15:13:28;3.30;;;2.97;;
57599;SDS011;43426;43.594;24.334;2023-04-24T15:15:53;3.33;;;2.92;;
57599;SDS011;43426;43.594;24.334;2023-04-24T15:18:18;3.75;;;3.28;;
57599;SDS011;43426;43.594;24.334;2023-04-24T15:20:44;3.72;;;3.42;;
57599;SDS011;43426;43.594;24.334;2023-04-24T15:23:10;3.42;;;3.22;;
57599;SDS011;43426;43.594;24.334;2023-04-24T15:25:38;3.83;;;3.53;;
57599;SDS011;43426;43.594;24.334;2023-04-24T15:28:03;3.40;;;3.10;;
57599;SDS011;43426;43.594;24.334;2023-04-24T15:30:32;3.50;;;3.22;;
57599;SDS011;43426;43.594;24.334;2023-04-24T15:32:57;3.38;;;3.17;;
57599;SDS011;43426;43.594;24.334;2023-04-24T15:35:24;3.47;;;3.28;;
57599;SDS011;43426;43.594;24.334;2023-04-24T15:37:49;3.50;;;2.80;;
57599;SDS011;43426;43.594;24.334;2023-04-24T15:40:15;3.25;;;3.05;;
57599;SDS011;43426;43.594;24.334;2023-04-24T15:42:41;3.70;;;3.45;;
57599;SDS011;43426;43.594;24.334;2023-04-24T15:45:08;4.35;;;3.95;;
57599;SDS011;43426;43.594;24.334;2023-04-24T15:47:34;6.95;;;4.47;;
57599;SDS011;43426;43.594;24.334;2023-04-24T15:50:00;5.68;;;3.92;;
57599;SDS011;43426;43.594;24.334;2023-04-24T15:52:25;3.60;;;3.30;;
57599;SDS011;43426;43.594;24.334;2023-04-24T15:54:51;4.32;;;3.88;;
57599;SDS011;43426;43.594;24.334;2023-04-24T15:57:16;4.63;;;3.13;;
57599;SDS011;43426;43.594;24.334;2023-04-24T15:59:42;3.13;;;2.92;;
57599;SDS011;43426;43.594;24.334;2023-04-24T16:02:09;4.22;;;3.83;;
57599;SDS011;43426;43.594;24.334;2023-04-24T16:04:42;3.85;;;3.55;;
57599;SDS011;43426;43.594;24.334;2023-04-24T16:07:08;3.83;;;3.53;;
57599;SDS011;43426;43.594;24.334;2023-04-24T16:09:34;3.92;;;3.63;;
57599;SDS011;43426;43.594;24.334;2023-04-24T16:11:59;3.70;;;3.42;;
57599;SDS011;43426;43.594;24.334;2023-04-24T16:14:26;3.47;;;3.17;;
57599;SDS011;43426;43.594;24.334;2023-04-24T16:16:51;3.75;;;3.30;;
57599;SDS011;43426;43.594;24.334;2023-04-24T16:19:17;3.72;;;3.53;;
57599;SDS011;43426;43.594;24.334;2023-04-24T16:21:42;4.05;;;3.75;;
57599;SDS011;43426;43.594;24.334;2023-04-24T16:24:08;3.72;;;3.42;;
57599;SDS011;43426;43.594;24.334;2023-04-24T16:26:34;4.03;;;3.72;;
57599;SDS011;43426;43.594;24.334;2023-04-24T16:28:59;3.83;;;3.63;;
57599;SDS011;43426;43.594;24.334;2023-04-24T16:31:25;3.95;;;3.65;;